Terminal Aerodrome Forecast
Issued by NWS

Home | Current Version | Previous Version | Text Only | Print | Product List | Glossary On
Versions: 1 2 3 4 5 6 7 8 9 10 11 12 13 14 15 16
000
FTUS43 KMPX 240520
TAFAXN
TAF
KAXN 240520Z 2406/2506 33013G20KT P6SM SCT035
     FM241000 34022G36KT P6SM SCT050
     FM241600 33029G42KT P6SM FEW150
     FM242200 32022G34KT P6SM SKC
     FM250000 31016G24KT P6SM FEW200
     FM250300 30008KT P6SM SCT110
     FM250500 27008KT P6SM SCT090=

USA.gov is the U.S. government's official web portal to all federal, state and local government web resources and services.